• Join FlightAware (Why Join?)
  • Login
  • US Flag 
12:55PM EDT


 

Airport Tracker/Info


-or-


 

Live Flight TrackerFlight Track Log ✈ GJS3706 ✈ 03-May-2013 ✈ KORD - KCVG

Flight Track Log - Related Links

Times and Time Zones

All times are in EDT time to prevent confusion due to time zone crossing. See the GJS3706 flight status page for this flight to view local times or setup timezone preferences in your user account.

Time Position Orientation Groundspeed Altitude Reporting Facility
EDT Latitude Longitude Course Direction KTS MPH feet Rate Location/Type
11:35AM 42.0167 -87.8500 199° South 195 224 2,900  Level Chicago TRACON
11:36AM 41.9667 -87.8000 143° Southeast 249 287 4,200 1,020 Climbing Chicago TRACON
11:37AM 41.9000 -87.8333 200° South 249 287 5,000 1,800 Climbing Chicago TRACON
11:38AM 41.7017 -87.5803 159° South  Level Estimated
11:39AM 41.6315 -87.4992 153° Southeast  Level Estimated
11:39AM 41.7881 -87.8731 195° South 270 311 9,500  Level Chicago Center
11:40AM 41.5524 -87.5359 199° South  Level FlightAware Approximate
11:40AM 41.7117 -87.8092 148° Southeast 269 310 12,900  Level Chicago Center
11:41AM 41.6431 -87.7539 149° Southeast 284 327 15,100 2,160 Climbing Chicago Center
11:42AM 41.5675 -87.6917 148° Southeast 311 358 17,400 1,800 Climbing Chicago Center
11:43AM 41.4872 -87.6297 150° Southeast 326 375 18,900 1,500 Climbing Chicago Center
11:44AM 41.4014 -87.5631 150° Southeast 347 399 20,500 960 Climbing Chicago Center
11:45AM 41.3122 -87.4947 150° Southeast 362 417 21,000 240 Climbing Chicago Center
11:46AM 41.2231 -87.4244 149° Southeast 369 425 21,000  Level Chicago Center
11:47AM 41.1303 -87.3567 151° Southeast 377 434 21,000  Level Chicago Center
11:48AM 41.0247 -87.2725 149° Southeast 372 428 21,000  Level Chicago Center
11:49AM 40.9339 -87.2044 150° Southeast 374 430 21,000  Level Chicago Center
11:50AM 40.8433 -87.1358 150° Southeast 375 432 21,000  Level Chicago Center
11:51AM 40.7533 -87.0675 150° Southeast 375 432 21,000  Level Chicago Center
11:52AM 40.6558 -86.9939 150° Southeast 376 433 21,000  Level Chicago Center
11:53AM 40.5656 -86.9256 150° Southeast 376 433 21,000  Level Chicago Center
11:54AM 40.4767 -86.8575 150° Southeast 373 429 21,000  Level Chicago Center
11:55AM 40.3864 -86.7894 150° Southeast 374 430 21,000  Level Chicago Center
11:56AM 40.2953 -86.7217 150° Southeast 377 434 21,000  Level Chicago Center
11:57AM 40.2033 -86.6556 151° Southeast 378 435 21,000  Level Chicago Center
11:58AM 40.0947 -86.5736 150° Southeast 377 434 21,000 -420 Level Chicago Center
11:59AM 40.0019 -86.5058 151° Southeast 378 435 20,200 -960 Descending Indianapolis Center
12:00PM 39.9139 -86.4408 150° Southeast 367 422 19,000 -1,020 Descending Indianapolis Center
12:01PM 39.8308 -86.3794 150° Southeast 350 403 18,100 -960 Descending Indianapolis Center
12:02PM 39.7833 -86.2833 123° Southeast 353 406 17,300 -1,020 Descending Indianapolis TRACON
12:03PM 39.7500 -86.1500 108° East 355 409 16,200 -1,020 Descending Indianapolis TRACON
12:04PM 39.7000 -86.0333 119° Southeast 341 392 15,200 -1,020 Descending Indianapolis TRACON
12:05PM 39.6667 -85.9167 110° East 346 398 14,200 -780 Descending Indianapolis TRACON
12:06PM 39.6333 -85.8167 113° Southeast 346 398 13,700 -660 Descending Indianapolis TRACON
12:07PM 39.6175 -85.7828 121° Southeast 343 395 13,400 -1,140 Descending Indianapolis Center
12:08PM 39.5808 -85.6722 113° Southeast 336 387 12,300 -1,020 Descending Indianapolis Center
12:09PM 39.5431 -85.5600 114° Southeast 339 390 11,300 -660 Descending Indianapolis Center
12:10PM 39.4986 -85.4508 118° Southeast 341 392 11,000 -180 Descending Indianapolis Center
12:11PM 39.4458 -85.3539 125° Southeast 332 382 11,000  Level Indianapolis Center
12:12PM 39.3936 -85.2569 125° Southeast 329 379 11,000 -300 Level Indianapolis Center
12:13PM 39.3503 -85.1378 115° Southeast 306 352 10,400 -1,140 Descending Indianapolis Center
12:14PM 39.3372 -85.0419 100° East 275 316 8,700 -1,680 Descending Indianapolis Center
12:15PM 39.3250 -84.9478 99° East 269 310 7,000 -1,620 Descending Indianapolis Center
12:16PM 39.3133 -84.8575 99° East 257 296 5,400 -1,440 Descending Indianapolis Center
12:17PM 39.2825 -84.7811 118° Southeast 252 290 4,100 -1,140 Descending Indianapolis Center
12:18PM 39.2167 -84.7000 136° Southeast 258 297 3,000 -600 Descending Cincinnati TRACON
12:19PM 39.1667 -84.6667 153° Southeast 176 203 2,900 -120 Descending Cincinnati TRACON